sensor_id;sensor_type;location;lat;lon;timestamp;temperature;humidity
15359;DHT22;7779;49.596;11.070;2023-05-10T00:02:09;17.30;45.00
15359;DHT22;7779;49.596;11.070;2023-05-10T00:04:35;17.30;45.30
15359;DHT22;7779;49.596;11.070;2023-05-10T00:07:00;17.30;45.60
15359;DHT22;7779;49.596;11.070;2023-05-10T00:09:26;17.20;45.70
15359;DHT22;7779;49.596;11.070;2023-05-10T00:11:52;17.30;46.60
15359;DHT22;7779;49.596;11.070;2023-05-10T00:14:18;17.30;46.30
15359;DHT22;7779;49.596;11.070;2023-05-10T00:16:44;17.20;46.60
15359;DHT22;7779;49.596;11.070;2023-05-10T00:19:09;17.20;46.70
15359;DHT22;7779;49.596;11.070;2023-05-10T00:21:35;17.20;47.00
15359;DHT22;7779;49.596;11.070;2023-05-10T00:24:01;17.20;47.30
15359;DHT22;7779;49.596;11.070;2023-05-10T00:26:27;17.10;47.60
15359;DHT22;7779;49.596;11.070;2023-05-10T00:28:55;17.40;48.20
15359;DHT22;7779;49.596;11.070;2023-05-10T00:31:22;17.00;48.20
15359;DHT22;7779;49.596;11.070;2023-05-10T00:33:47;17.00;49.90
15359;DHT22;7779;49.596;11.070;2023-05-10T00:36:13;17.00;48.70
15359;DHT22;7779;49.596;11.070;2023-05-10T00:38:40;16.90;48.90
15359;DHT22;7779;49.596;11.070;2023-05-10T00:41:06;16.90;49.10
15359;DHT22;7779;49.596;11.070;2023-05-10T00:43:33;16.80;49.40
15359;DHT22;7779;49.596;11.070;2023-05-10T00:45:59;16.80;49.80
15359;DHT22;7779;49.596;11.070;2023-05-10T00:48:25;16.70;50.00
15359;DHT22;7779;49.596;11.070;2023-05-10T00:50:51;16.70;50.30
15359;DHT22;7779;49.596;11.070;2023-05-10T00:53:17;16.60;50.40
15359;DHT22;7779;49.596;11.070;2023-05-10T00:55:44;16.60;50.50
15359;DHT22;7779;49.596;11.070;2023-05-10T00:58:09;16.60;50.80
15359;DHT22;7779;49.596;11.070;2023-05-10T01:00:36;16.50;51.10
15359;DHT22;7779;49.596;11.070;2023-05-10T01:03:03;16.40;51.30
15359;DHT22;7779;49.596;11.070;2023-05-10T01:05:29;16.40;51.40
15359;DHT22;7779;49.596;11.070;2023-05-10T01:07:56;16.30;51.50
15359;DHT22;7779;49.596;11.070;2023-05-10T01:10:22;16.30;51.60
15359;DHT22;7779;49.596;11.070;2023-05-10T01:12:48;16.20;51.80
15359;DHT22;7779;49.596;11.070;2023-05-10T01:15:15;16.20;51.90
15359;DHT22;7779;49.596;11.070;2023-05-10T01:17:46;16.10;52.20
15359;DHT22;7779;49.596;11.070;2023-05-10T01:20:13;16.10;52.60
15359;DHT22;7779;49.596;11.070;2023-05-10T01:26:05;16.00;54.60
15359;DHT22;7779;49.596;11.070;2023-05-10T01:29:05;16.00;54.60
15359;DHT22;7779;49.596;11.070;2023-05-10T01:32:05;15.90;55.00
15359;DHT22;7779;49.596;11.070;2023-05-10T01:34:59;15.90;55.50
15359;DHT22;7779;49.596;11.070;2023-05-10T01:41:03;15.80;56.30
15359;DHT22;7779;49.596;11.070;2023-05-10T01:44:20;15.80;55.50
15359;DHT22;7779;49.596;11.070;2023-05-10T01:47:01;15.70;56.80
15359;DHT22;7779;49.596;11.070;2023-05-10T01:49:36;15.70;54.50
15359;DHT22;7779;49.596;11.070;2023-05-10T01:52:10;15.70;54.80
15359;DHT22;7779;49.596;11.070;2023-05-10T01:54:42;15.60;54.80
15359;DHT22;7779;49.596;11.070;2023-05-10T01:57:16;15.60;55.10
15359;DHT22;7779;49.596;11.070;2023-05-10T01:59:49;15.60;55.30
15359;DHT22;7779;49.596;11.070;2023-05-10T02:02:17;15.60;55.90
15359;DHT22;7779;49.596;11.070;2023-05-10T02:04:46;15.60;55.50
15359;DHT22;7779;49.596;11.070;2023-05-10T02:07:15;15.50;55.70
15359;DHT22;7779;49.596;11.070;2023-05-10T02:09:44;15.50;55.90
15359;DHT22;7779;49.596;11.070;2023-05-10T02:12:15;15.50;56.30
15359;DHT22;7779;49.596;11.070;2023-05-10T02:14:42;15.50;56.30
15359;DHT22;7779;49.596;11.070;2023-05-10T02:17:09;15.50;56.40
15359;DHT22;7779;49.596;11.070;2023-05-10T02:19:38;15.50;56.70
15359;DHT22;7779;49.596;11.070;2023-05-10T02:22:06;15.50;58.60
15359;DHT22;7779;49.596;11.070;2023-05-10T02:24:35;15.50;57.10
15359;DHT22;7779;49.596;11.070;2023-05-10T02:27:03;15.50;57.30
15359;DHT22;7779;49.596;11.070;2023-05-10T02:29:31;15.50;57.30
15359;DHT22;7779;49.596;11.070;2023-05-10T02:31:58;15.50;57.60
15359;DHT22;7779;49.596;11.070;2023-05-10T02:34:28;15.50;57.80
15359;DHT22;7779;49.596;11.070;2023-05-10T02:36:55;15.50;58.40
15359;DHT22;7779;49.596;11.070;2023-05-10T02:39:22;15.50;58.10
15359;DHT22;7779;49.596;11.070;2023-05-10T02:41:50;15.50;58.30
15359;DHT22;7779;49.596;11.070;2023-05-10T02:44:18;15.50;58.40
15359;DHT22;7779;49.596;11.070;2023-05-10T02:46:46;15.50;58.60
15359;DHT22;7779;49.596;11.070;2023-05-10T02:49:12;15.50;58.80
15359;DHT22;7779;49.596;11.070;2023-05-10T02:51:44;15.60;59.00
15359;DHT22;7779;49.596;11.070;2023-05-10T02:54:24;15.60;59.80
15359;DHT22;7779;49.596;11.070;2023-05-10T02:56:57;15.60;60.80
15359;DHT22;7779;49.596;11.070;2023-05-10T02:59:26;15.60;59.60
15359;DHT22;7779;49.596;11.070;2023-05-10T03:01:52;15.60;59.60
15359;DHT22;7779;49.596;11.070;2023-05-10T03:04:18;15.60;59.80
15359;DHT22;7779;49.596;11.070;2023-05-10T03:06:44;15.60;59.90
15359;DHT22;7779;49.596;11.070;2023-05-10T03:09:10;15.60;60.00
15359;DHT22;7779;49.596;11.070;2023-05-10T03:20:20;15.60;62.30
15359;DHT22;7779;49.596;11.070;2023-05-10T03:23:23;15.70;62.10
15359;DHT22;7779;49.596;11.070;2023-05-10T03:25:55;15.70;64.40
15359;DHT22;7779;49.596;11.070;2023-05-10T03:28:23;15.70;61.40
15359;DHT22;7779;49.596;11.070;2023-05-10T03:30:52;15.70;61.60
15359;DHT22;7779;49.596;11.070;2023-05-10T03:33:19;15.70;61.60
15359;DHT22;7779;49.596;11.070;2023-05-10T03:35:46;15.70;61.60
15359;DHT22;7779;49.596;11.070;2023-05-10T03:38:13;15.70;61.80
15359;DHT22;7779;49.596;11.070;2023-05-10T03:40:39;15.70;62.00
15359;DHT22;7779;49.596;11.070;2023-05-10T03:43:07;15.80;62.20
15359;DHT22;7779;49.596;11.070;2023-05-10T03:45:32;15.80;62.40
15359;DHT22;7779;49.596;11.070;2023-05-10T03:47:58;15.80;62.60
15359;DHT22;7779;49.596;11.070;2023-05-10T03:50:24;15.80;62.70
15359;DHT22;7779;49.596;11.070;2023-05-10T03:52:50;15.90;62.90
15359;DHT22;7779;49.596;11.070;2023-05-10T03:55:16;15.90;63.10
15359;DHT22;7779;49.596;11.070;2023-05-10T03:57:42;15.90;63.20
15359;DHT22;7779;49.596;11.070;2023-05-10T04:00:08;15.90;63.20
15359;DHT22;7779;49.596;11.070;2023-05-10T04:02:41;15.90;63.40
15359;DHT22;7779;49.596;11.070;2023-05-10T04:05:09;15.90;63.40
15359;DHT22;7779;49.596;11.070;2023-05-10T04:07:36;15.90;63.40
15359;DHT22;7779;49.596;11.070;2023-05-10T04:10:02;16.00;63.60
15359;DHT22;7779;49.596;11.070;2023-05-10T04:12:27;16.00;63.70
15359;DHT22;7779;49.596;11.070;2023-05-10T04:14:53;16.00;63.90
15359;DHT22;7779;49.596;11.070;2023-05-10T04:17:19;16.00;63.90
15359;DHT22;7779;49.596;11.070;2023-05-10T04:19:44;16.00;64.00
15359;DHT22;7779;49.596;11.070;2023-05-10T04:22:10;16.00;64.10
15359;DHT22;7779;49.596;11.070;2023-05-10T04:24:36;16.00;64.20
15359;DHT22;7779;49.596;11.070;2023-05-10T04:27:01;16.10;64.30
15359;DHT22;7779;49.596;11.070;2023-05-10T04:29:27;16.10;64.50
15359;DHT22;7779;49.596;11.070;2023-05-10T04:31:53;16.10;64.50
15359;DHT22;7779;49.596;11.070;2023-05-10T04:34:21;16.10;64.60
15359;DHT22;7779;49.596;11.070;2023-05-10T04:36:46;16.10;65.00
15359;DHT22;7779;49.596;11.070;2023-05-10T04:39:12;16.10;64.50
15359;DHT22;7779;49.596;11.070;2023-05-10T04:41:39;16.10;64.50
15359;DHT22;7779;49.596;11.070;2023-05-10T04:44:05;16.10;64.60
15359;DHT22;7779;49.596;11.070;2023-05-10T04:46:31;16.10;64.70
15359;DHT22;7779;49.596;11.070;2023-05-10T04:48:57;16.10;64.70
15359;DHT22;7779;49.596;11.070;2023-05-10T04:51:22;16.10;64.70
15359;DHT22;7779;49.596;11.070;2023-05-10T04:53:48;16.10;64.80
15359;DHT22;7779;49.596;11.070;2023-05-10T04:56:14;16.10;64.90
15359;DHT22;7779;49.596;11.070;2023-05-10T04:58:40;16.10;64.90
15359;DHT22;7779;49.596;11.070;2023-05-10T05:01:06;16.10;64.90
15359;DHT22;7779;49.596;11.070;2023-05-10T05:03:34;16.10;64.70
15359;DHT22;7779;49.596;11.070;2023-05-10T05:06:00;16.10;64.90
15359;DHT22;7779;49.596;11.070;2023-05-10T05:08:26;16.10;64.90
15359;DHT22;7779;49.596;11.070;2023-05-10T05:10:52;16.10;64.70
15359;DHT22;7779;49.596;11.070;2023-05-10T05:13:18;16.10;64.70
15359;DHT22;7779;49.596;11.070;2023-05-10T05:15:44;16.00;64.60
15359;DHT22;7779;49.596;11.070;2023-05-10T05:18:09;16.00;64.60
15359;DHT22;7779;49.596;11.070;2023-05-10T05:20:35;16.00;64.70
15359;DHT22;7779;49.596;11.070;2023-05-10T05:23:01;15.90;64.70
15359;DHT22;7779;49.596;11.070;2023-05-10T05:25:27;16.00;65.00
15359;DHT22;7779;49.596;11.070;2023-05-10T05:27:53;16.00;65.10
15359;DHT22;7779;49.596;11.070;2023-05-10T05:30:19;16.00;65.30
15359;DHT22;7779;49.596;11.070;2023-05-10T05:32:45;16.00;65.30
15359;DHT22;7779;49.596;11.070;2023-05-10T05:35:12;16.00;65.40
15359;DHT22;7779;49.596;11.070;2023-05-10T05:37:38;16.00;65.50
15359;DHT22;7779;49.596;11.070;2023-05-10T05:40:05;15.90;65.40
15359;DHT22;7779;49.596;11.070;2023-05-10T05:42:31;16.00;65.60
15359;DHT22;7779;49.596;11.070;2023-05-10T05:44:57;16.00;65.70
15359;DHT22;7779;49.596;11.070;2023-05-10T05:47:23;16.10;65.70
15359;DHT22;7779;49.596;11.070;2023-05-10T05:49:48;16.10;65.60
15359;DHT22;7779;49.596;11.070;2023-05-10T05:52:14;16.10;65.60
15359;DHT22;7779;49.596;11.070;2023-05-10T05:54:40;16.10;66.40
15359;DHT22;7779;49.596;11.070;2023-05-10T05:57:05;16.20;65.90
15359;DHT22;7779;49.596;11.070;2023-05-10T05:59:31;16.20;65.80
15359;DHT22;7779;49.596;11.070;2023-05-10T06:01:57;16.20;65.70
15359;DHT22;7779;49.596;11.070;2023-05-10T06:04:22;16.20;65.70
15359;DHT22;7779;49.596;11.070;2023-05-10T06:06:48;16.20;65.70
15359;DHT22;7779;49.596;11.070;2023-05-10T06:09:14;16.30;65.70
15359;DHT22;7779;49.596;11.070;2023-05-10T06:11:39;16.30;65.80
15359;DHT22;7779;49.596;11.070;2023-05-10T06:14:05;16.30;65.80
15359;DHT22;7779;49.596;11.070;2023-05-10T06:16:34;16.40;65.90
15359;DHT22;7779;49.596;11.070;2023-05-10T06:18:59;16.40;65.80
15359;DHT22;7779;49.596;11.070;2023-05-10T06:21:25;16.40;65.80
15359;DHT22;7779;49.596;11.070;2023-05-10T06:23:51;16.50;65.70
15359;DHT22;7779;49.596;11.070;2023-05-10T06:26:17;16.50;65.70
15359;DHT22;7779;49.596;11.070;2023-05-10T06:28:42;16.60;65.90
15359;DHT22;7779;49.596;11.070;2023-05-10T06:31:08;16.60;65.80
15359;DHT22;7779;49.596;11.070;2023-05-10T06:33:34;16.60;65.60
15359;DHT22;7779;49.596;11.070;2023-05-10T06:36:00;16.60;65.50
15359;DHT22;7779;49.596;11.070;2023-05-10T06:38:26;16.70;65.50
15359;DHT22;7779;49.596;11.070;2023-05-10T06:40:52;16.70;65.60
15359;DHT22;7779;49.596;11.070;2023-05-10T06:43:17;16.70;65.60
15359;DHT22;7779;49.596;11.070;2023-05-10T06:45:43;16.80;65.60
15359;DHT22;7779;49.596;11.070;2023-05-10T06:48:09;16.80;65.60
15359;DHT22;7779;49.596;11.070;2023-05-10T06:50:35;16.90;65.70
15359;DHT22;7779;49.596;11.070;2023-05-10T06:53:01;16.90;65.80
15359;DHT22;7779;49.596;11.070;2023-05-10T06:55:27;17.10;66.10
15359;DHT22;7779;49.596;11.070;2023-05-10T06:57:53;17.20;66.30
15359;DHT22;7779;49.596;11.070;2023-05-10T07:00:20;17.30;66.30
15359;DHT22;7779;49.596;11.070;2023-05-10T07:02:46;17.40;66.30
15359;DHT22;7779;49.596;11.070;2023-05-10T07:05:12;17.50;66.20
15359;DHT22;7779;49.596;11.070;2023-05-10T07:07:38;17.60;66.30
15359;DHT22;7779;49.596;11.070;2023-05-10T07:10:05;17.80;66.20
15359;DHT22;7779;49.596;11.070;2023-05-10T07:12:31;17.90;66.10
15359;DHT22;7779;49.596;11.070;2023-05-10T07:14:57;18.10;65.90
15359;DHT22;7779;49.596;11.070;2023-05-10T07:17:22;18.20;65.80
15359;DHT22;7779;49.596;11.070;2023-05-10T07:19:48;18.30;65.50
15359;DHT22;7779;49.596;11.070;2023-05-10T07:22:15;18.40;65.10
15359;DHT22;7779;49.596;11.070;2023-05-10T07:24:42;18.50;64.70
15359;DHT22;7779;49.596;11.070;2023-05-10T07:27:08;18.70;64.50
15359;DHT22;7779;49.596;11.070;2023-05-10T07:29:34;18.70;64.10
15359;DHT22;7779;49.596;11.070;2023-05-10T07:32:01;18.80;63.90
15359;DHT22;7779;49.596;11.070;2023-05-10T07:34:26;18.90;63.60
15359;DHT22;7779;49.596;11.070;2023-05-10T07:36:53;18.90;63.20
15359;DHT22;7779;49.596;11.070;2023-05-10T07:39:19;19.00;63.00
15359;DHT22;7779;49.596;11.070;2023-05-10T07:41:51;19.00;62.80
15359;DHT22;7779;49.596;11.070;2023-05-10T07:44:17;19.10;62.00
15359;DHT22;7779;49.596;11.070;2023-05-10T07:46:44;19.10;62.30
15359;DHT22;7779;49.596;11.070;2023-05-10T07:49:10;19.10;62.00
15359;DHT22;7779;49.596;11.070;2023-05-10T07:51:35;19.10;61.90
15359;DHT22;7779;49.596;11.070;2023-05-10T07:54:01;19.10;61.60
15359;DHT22;7779;49.596;11.070;2023-05-10T07:56:30;19.00;61.30
15359;DHT22;7779;49.596;11.070;2023-05-10T07:58:57;19.00;61.10
15359;DHT22;7779;49.596;11.070;2023-05-10T08:01:24;19.00;61.10
15359;DHT22;7779;49.596;11.070;2023-05-10T08:03:50;19.00;61.10
15359;DHT22;7779;49.596;11.070;2023-05-10T08:06:17;19.00;61.10
15359;DHT22;7779;49.596;11.070;2023-05-10T08:08:46;19.00;61.10
15359;DHT22;7779;49.596;11.070;2023-05-10T08:11:16;18.90;61.00
15359;DHT22;7779;49.596;11.070;2023-05-10T08:13:43;18.90;61.60
15359;DHT22;7779;49.596;11.070;2023-05-10T08:16:09;18.90;61.00
15359;DHT22;7779;49.596;11.070;2023-05-10T08:18:35;18.80;60.70
15359;DHT22;7779;49.596;11.070;2023-05-10T08:21:01;18.80;60.70
15359;DHT22;7779;49.596;11.070;2023-05-10T08:23:26;18.70;60.80
15359;DHT22;7779;49.596;11.070;2023-05-10T08:25:52;18.70;60.80
15359;DHT22;7779;49.596;11.070;2023-05-10T08:28:18;18.70;60.70
15359;DHT22;7779;49.596;11.070;2023-05-10T08:30:43;18.70;60.60
15359;DHT22;7779;49.596;11.070;2023-05-10T08:33:09;18.60;60.50
15359;DHT22;7779;49.596;11.070;2023-05-10T08:35:35;18.60;60.60
15359;DHT22;7779;49.596;11.070;2023-05-10T08:38:00;18.50;60.60
15359;DHT22;7779;49.596;11.070;2023-05-10T08:40:26;18.50;60.70
15359;DHT22;7779;49.596;11.070;2023-05-10T08:43:00;18.50;60.80
15359;DHT22;7779;49.596;11.070;2023-05-10T08:45:33;18.50;61.00
15359;DHT22;7779;49.596;11.070;2023-05-10T08:48:05;18.40;60.70
15359;DHT22;7779;49.596;11.070;2023-05-10T08:50:35;18.40;60.70
15359;DHT22;7779;49.596;11.070;2023-05-10T08:53:04;18.40;60.80
15359;DHT22;7779;49.596;11.070;2023-05-10T08:55:33;18.40;60.80
15359;DHT22;7779;49.596;11.070;2023-05-10T08:58:00;18.40;60.80
15359;DHT22;7779;49.596;11.070;2023-05-10T09:00:26;18.30;60.80
15359;DHT22;7779;49.596;11.070;2023-05-10T09:02:53;18.30;60.80
15359;DHT22;7779;49.596;11.070;2023-05-10T09:05:19;18.30;60.90
15359;DHT22;7779;49.596;11.070;2023-05-10T09:07:45;18.30;61.10
15359;DHT22;7779;49.596;11.070;2023-05-10T09:10:11;18.20;61.10
15359;DHT22;7779;49.596;11.070;2023-05-10T09:12:38;18.20;61.70
15359;DHT22;7779;49.596;11.070;2023-05-10T09:15:05;18.20;61.20
15359;DHT22;7779;49.596;11.070;2023-05-10T09:17:32;18.10;61.30
15359;DHT22;7779;49.596;11.070;2023-05-10T09:19:59;18.00;62.00
15359;DHT22;7779;49.596;11.070;2023-05-10T09:22:26;18.00;62.30
15359;DHT22;7779;49.596;11.070;2023-05-10T09:25:12;18.00;62.10
15359;DHT22;7779;49.596;11.070;2023-05-10T09:27:41;18.00;64.30
15359;DHT22;7779;49.596;11.070;2023-05-10T09:30:14;18.00;63.00
15359;DHT22;7779;49.596;11.070;2023-05-10T09:32:49;18.10;63.40
15359;DHT22;7779;49.596;11.070;2023-05-10T09:35:20;18.30;64.00
15359;DHT22;7779;49.596;11.070;2023-05-10T09:37:51;18.40;64.20
15359;DHT22;7779;49.596;11.070;2023-05-10T09:40:26;18.60;64.30
15359;DHT22;7779;49.596;11.070;2023-05-10T09:45:28;19.00;64.60
15359;DHT22;7779;49.596;11.070;2023-05-10T09:47:56;19.20;64.80
15359;DHT22;7779;49.596;11.070;2023-05-10T09:50:23;19.40;64.60
15359;DHT22;7779;49.596;11.070;2023-05-10T09:58:02;19.90;63.00
15359;DHT22;7779;49.596;11.070;2023-05-10T10:00:28;20.10;62.60
15359;DHT22;7779;49.596;11.070;2023-05-10T10:03:02;20.10;62.20
15359;DHT22;7779;49.596;11.070;2023-05-10T10:05:33;20.20;61.90
15359;DHT22;7779;49.596;11.070;2023-05-10T10:08:04;20.20;61.40
15359;DHT22;7779;49.596;11.070;2023-05-10T10:10:31;20.30;61.20
15359;DHT22;7779;49.596;11.070;2023-05-10T10:12:59;20.30;61.20
15359;DHT22;7779;49.596;11.070;2023-05-10T10:15:25;20.30;60.90
15359;DHT22;7779;49.596;11.070;2023-05-10T10:17:52;20.30;60.30
15359;DHT22;7779;49.596;11.070;2023-05-10T10:20:19;20.40;60.00
15359;DHT22;7779;49.596;11.070;2023-05-10T10:22:47;20.40;59.90
15359;DHT22;7779;49.596;11.070;2023-05-10T10:25:15;20.40;60.00
15359;DHT22;7779;49.596;11.070;2023-05-10T10:27:43;20.50;60.20
15359;DHT22;7779;49.596;11.070;2023-05-10T10:35:39;20.80;60.30
15359;DHT22;7779;49.596;11.070;2023-05-10T10:38:08;20.90;59.90
15359;DHT22;7779;49.596;11.070;2023-05-10T10:40:34;21.00;59.30
15359;DHT22;7779;49.596;11.070;2023-05-10T10:43:24;21.10;58.90
15359;DHT22;7779;49.596;11.070;2023-05-10T10:46:10;21.20;58.10
15359;DHT22;7779;49.596;11.070;2023-05-10T10:49:12;21.20;57.70
15359;DHT22;7779;49.596;11.070;2023-05-10T10:51:40;21.30;57.10
15359;DHT22;7779;49.596;11.070;2023-05-10T10:54:50;21.30;58.00
15359;DHT22;7779;49.596;11.070;2023-05-10T10:57:24;21.30;57.50
15359;DHT22;7779;49.596;11.070;2023-05-10T10:59:58;21.40;57.40
15359;DHT22;7779;49.596;11.070;2023-05-10T11:02:44;21.40;57.10
15359;DHT22;7779;49.596;11.070;2023-05-10T11:05:37;21.40;57.00
15359;DHT22;7779;49.596;11.070;2023-05-10T11:08:17;21.40;56.20
15359;DHT22;7779;49.596;11.070;2023-05-10T11:11:01;21.40;56.10
15359;DHT22;7779;49.596;11.070;2023-05-10T11:13:39;21.40;56.20
15359;DHT22;7779;49.596;11.070;2023-05-10T11:16:20;21.40;56.10
15359;DHT22;7779;49.596;11.070;2023-05-10T11:21:25;21.40;56.00
15359;DHT22;7779;49.596;11.070;2023-05-10T11:23:55;21.40;56.20
15359;DHT22;7779;49.596;11.070;2023-05-10T11:26:24;21.40;56.00
15359;DHT22;7779;49.596;11.070;2023-05-10T11:28:53;21.50;56.20
15359;DHT22;7779;49.596;11.070;2023-05-10T11:31:24;21.50;56.10
15359;DHT22;7779;49.596;11.070;2023-05-10T11:33:56;21.50;56.00
15359;DHT22;7779;49.596;11.070;2023-05-10T11:36:25;21.50;55.60
15359;DHT22;7779;49.596;11.070;2023-05-10T11:38:53;21.50;55.50
15359;DHT22;7779;49.596;11.070;2023-05-10T11:41:23;21.50;55.30
15359;DHT22;7779;49.596;11.070;2023-05-10T11:43:52;21.50;55.00
15359;DHT22;7779;49.596;11.070;2023-05-10T11:46:21;21.40;55.00
15359;DHT22;7779;49.596;11.070;2023-05-10T11:48:54;21.40;55.00
15359;DHT22;7779;49.596;11.070;2023-05-10T11:51:23;21.40;54.90
15359;DHT22;7779;49.596;11.070;2023-05-10T11:53:53;21.30;54.90
15359;DHT22;7779;49.596;11.070;2023-05-10T11:56:20;21.20;54.90
15359;DHT22;7779;49.596;11.070;2023-05-10T11:58:57;21.10;55.00
15359;DHT22;7779;49.596;11.070;2023-05-10T12:01:25;21.10;55.00
15359;DHT22;7779;49.596;11.070;2023-05-10T12:03:53;21.00;55.20
15359;DHT22;7779;49.596;11.070;2023-05-10T12:06:20;21.00;55.40
15359;DHT22;7779;49.596;11.070;2023-05-10T12:08:47;21.00;55.60
15359;DHT22;7779;49.596;11.070;2023-05-10T12:11:18;21.00;55.60
15359;DHT22;7779;49.596;11.070;2023-05-10T12:13:44;21.00;55.60
15359;DHT22;7779;49.596;11.070;2023-05-10T12:16:17;21.10;55.70
15359;DHT22;7779;49.596;11.070;2023-05-10T12:18:45;21.20;55.90
15359;DHT22;7779;49.596;11.070;2023-05-10T12:21:14;21.30;55.90
15359;DHT22;7779;49.596;11.070;2023-05-10T12:23:41;21.40;55.80
15359;DHT22;7779;49.596;11.070;2023-05-10T12:26:09;21.50;55.80
15359;DHT22;7779;49.596;11.070;2023-05-10T12:28:38;21.60;55.50
15359;DHT22;7779;49.596;11.070;2023-05-10T12:31:07;21.70;55.40
15359;DHT22;7779;49.596;11.070;2023-05-10T12:33:43;21.80;55.30
15359;DHT22;7779;49.596;11.070;2023-05-10T12:36:12;21.90;54.40
15359;DHT22;7779;49.596;11.070;2023-05-10T12:38:43;22.00;54.80
15359;DHT22;7779;49.596;11.070;2023-05-10T12:41:15;22.00;54.40
15359;DHT22;7779;49.596;11.070;2023-05-10T12:43:43;22.00;54.40
15359;DHT22;7779;49.596;11.070;2023-05-10T12:46:17;22.10;54.50
15359;DHT22;7779;49.596;11.070;2023-05-10T12:48:44;22.10;54.00
15359;DHT22;7779;49.596;11.070;2023-05-10T12:51:11;22.10;54.00
15359;DHT22;7779;49.596;11.070;2023-05-10T12:53:39;22.10;54.00
15359;DHT22;7779;49.596;11.070;2023-05-10T12:56:05;22.10;53.90
15359;DHT22;7779;49.596;11.070;2023-05-10T12:58:31;22.10;53.90
15359;DHT22;7779;49.596;11.070;2023-05-10T13:00:58;22.00;53.80
15359;DHT22;7779;49.596;11.070;2023-05-10T13:03:24;22.10;53.80
15359;DHT22;7779;49.596;11.070;2023-05-10T13:05:50;22.00;53.60
15359;DHT22;7779;49.596;11.070;2023-05-10T13:08:16;22.00;53.40
15359;DHT22;7779;49.596;11.070;2023-05-10T13:10:41;22.00;53.50
15359;DHT22;7779;49.596;11.070;2023-05-10T13:13:07;22.00;53.60
15359;DHT22;7779;49.596;11.070;2023-05-10T13:15:34;22.00;53.70
15359;DHT22;7779;49.596;11.070;2023-05-10T13:18:00;22.00;54.00
15359;DHT22;7779;49.596;11.070;2023-05-10T13:20:26;22.00;53.70
15359;DHT22;7779;49.596;11.070;2023-05-10T13:22:52;22.00;53.80
15359;DHT22;7779;49.596;11.070;2023-05-10T13:25:18;22.00;53.90
15359;DHT22;7779;49.596;11.070;2023-05-10T13:27:45;22.00;53.90
15359;DHT22;7779;49.596;11.070;2023-05-10T13:30:11;22.00;53.80
15359;DHT22;7779;49.596;11.070;2023-05-10T13:32:37;21.90;52.80
15359;DHT22;7779;49.596;11.070;2023-05-10T13:35:04;21.90;53.50
15359;DHT22;7779;49.596;11.070;2023-05-10T13:37:30;21.90;53.70
15359;DHT22;7779;49.596;11.070;2023-05-10T13:39:57;21.90;54.10
15359;DHT22;7779;49.596;11.070;2023-05-10T13:42:23;21.90;54.30
15359;DHT22;7779;49.596;11.070;2023-05-10T13:44:49;21.80;54.30
15359;DHT22;7779;49.596;11.070;2023-05-10T13:47:15;21.80;54.20
15359;DHT22;7779;49.596;11.070;2023-05-10T13:49:41;21.70;54.40
15359;DHT22;7779;49.596;11.070;2023-05-10T13:52:07;21.60;54.40
15359;DHT22;7779;49.596;11.070;2023-05-10T13:54:35;21.50;54.30
15359;DHT22;7779;49.596;11.070;2023-05-10T13:57:02;21.40;54.40
15359;DHT22;7779;49.596;11.070;2023-05-10T13:59:29;21.30;54.30
15359;DHT22;7779;49.596;11.070;2023-05-10T14:01:57;21.20;54.60
15359;DHT22;7779;49.596;11.070;2023-05-10T14:04:24;21.10;54.80
15359;DHT22;7779;49.596;11.070;2023-05-10T14:06:49;21.00;55.10
15359;DHT22;7779;49.596;11.070;2023-05-10T14:09:15;20.90;55.10
15359;DHT22;7779;49.596;11.070;2023-05-10T14:11:41;20.90;55.30
15359;DHT22;7779;49.596;11.070;2023-05-10T14:14:09;20.80;55.50
15359;DHT22;7779;49.596;11.070;2023-05-10T14:16:35;20.70;56.30
15359;DHT22;7779;49.596;11.070;2023-05-10T14:19:00;20.70;55.80
15359;DHT22;7779;49.596;11.070;2023-05-10T14:21:28;20.60;55.80
15359;DHT22;7779;49.596;11.070;2023-05-10T14:23:55;20.70;56.00
15359;DHT22;7779;49.596;11.070;2023-05-10T14:26:21;20.60;56.10
15359;DHT22;7779;49.596;11.070;2023-05-10T14:28:47;20.50;56.10
15359;DHT22;7779;49.596;11.070;2023-05-10T14:31:13;20.40;55.80
15359;DHT22;7779;49.596;11.070;2023-05-10T14:33:39;20.30;55.30
15359;DHT22;7779;49.596;11.070;2023-05-10T14:36:06;20.10;55.40
15359;DHT22;7779;49.596;11.070;2023-05-10T14:38:32;19.90;55.60
15359;DHT22;7779;49.596;11.070;2023-05-10T14:40:58;19.70;56.20
15359;DHT22;7779;49.596;11.070;2023-05-10T14:43:24;19.50;56.50
15359;DHT22;7779;49.596;11.070;2023-05-10T14:45:49;19.30;56.80
15359;DHT22;7779;49.596;11.070;2023-05-10T14:48:15;19.20;57.40
15359;DHT22;7779;49.596;11.070;2023-05-10T14:50:43;19.10;57.90
15359;DHT22;7779;49.596;11.070;2023-05-10T14:53:09;18.90;58.30
15359;DHT22;7779;49.596;11.070;2023-05-10T14:55:35;18.80;58.80
15359;DHT22;7779;49.596;11.070;2023-05-10T14:58:02;18.80;59.10
15359;DHT22;7779;49.596;11.070;2023-05-10T15:00:29;18.70;59.50
15359;DHT22;7779;49.596;11.070;2023-05-10T15:02:55;18.70;59.90
15359;DHT22;7779;49.596;11.070;2023-05-10T15:05:21;18.60;60.20
15359;DHT22;7779;49.596;11.070;2023-05-10T15:07:47;18.60;60.70
15359;DHT22;7779;49.596;11.070;2023-05-10T15:10:13;18.60;60.90
15359;DHT22;7779;49.596;11.070;2023-05-10T15:12:39;18.60;61.20
15359;DHT22;7779;49.596;11.070;2023-05-10T15:15:05;18.60;61.10
15359;DHT22;7779;49.596;11.070;2023-05-10T15:17:32;18.60;61.10
15359;DHT22;7779;49.596;11.070;2023-05-10T15:19:58;18.50;60.80
15359;DHT22;7779;49.596;11.070;2023-05-10T15:22:24;18.40;61.20
15359;DHT22;7779;49.596;11.070;2023-05-10T15:24:49;18.30;60.30
15359;DHT22;7779;49.596;11.070;2023-05-10T15:27:15;18.20;60.00
15359;DHT22;7779;49.596;11.070;2023-05-10T15:29:41;18.00;60.80
15359;DHT22;7779;49.596;11.070;2023-05-10T15:32:07;17.90;60.00
15359;DHT22;7779;49.596;11.070;2023-05-10T15:34:32;17.80;60.30
15359;DHT22;7779;49.596;11.070;2023-05-10T15:36:58;17.70;60.70
15359;DHT22;7779;49.596;11.070;2023-05-10T15:39:24;17.60;61.00
15359;DHT22;7779;49.596;11.070;2023-05-10T15:41:50;17.50;61.20
15359;DHT22;7779;49.596;11.070;2023-05-10T15:44:16;17.40;61.60
15359;DHT22;7779;49.596;11.070;2023-05-10T15:46:43;17.30;61.80
15359;DHT22;7779;49.596;11.070;2023-05-10T15:49:09;17.20;61.90
15359;DHT22;7779;49.596;11.070;2023-05-10T15:51:35;17.20;62.30
15359;DHT22;7779;49.596;11.070;2023-05-10T15:54:01;17.10;62.40
15359;DHT22;7779;49.596;11.070;2023-05-10T15:56:28;17.10;62.50
15359;DHT22;7779;49.596;11.070;2023-05-10T15:58:54;17.00;62.70
15359;DHT22;7779;49.596;11.070;2023-05-10T16:01:19;17.00;62.90
15359;DHT22;7779;49.596;11.070;2023-05-10T16:03:45;16.90;62.90
15359;DHT22;7779;49.596;11.070;2023-05-10T16:06:11;16.90;62.90
15359;DHT22;7779;49.596;11.070;2023-05-10T16:08:37;16.90;63.00